Time;durP1;ratioP1;P1;durP2;ratioP2;P2;SDS_P1;SDS_P2;PMS_P1;PMS_P2;Temp;Humidity;BMP_temperature;BMP_pressure;BME280_temperature;BME280_humidity;BME280_pressure;Samples;Min_cycle;Max_cycle;Signal;HPM_P1;HPM_P2
2023/01/12 00:02:24;;;;;;;40.80;11.97;;;;;;;;;;6232974;28;20026;-81
2023/01/12 00:05:25;;;;;;;43.40;11.67;;;;;;;;;;6240346;28;20029;-81
2023/01/12 00:08:25;;;;;;;41.08;13.65;;;;;;;;;;6247841;28;20048;-81
2023/01/12 00:11:25;;;;;;;39.73;14.00;;;;;;;;;;6227411;28;20103;-80
2023/01/12 00:14:25;;;;;;;44.33;15.07;;;;;;;;;;6239288;28;20025;-81
2023/01/12 00:17:25;;;;;;;59.63;17.02;;;;;;;;;;6233461;28;20528;-81
2023/01/12 00:20:25;;;;;;;52.87;16.70;;;;;;;;;;6230620;28;20048;-81
2023/01/12 00:23:26;;;;;;;45.27;15.30;;;;;;;;;;6227655;28;20025;-81
2023/01/12 00:26:27;;;;;;;32.93;11.67;;;;;;;;;;6229352;28;20057;-80
2023/01/12 00:29:27;;;;;;;24.13;10.20;;;;;;;;;;6249797;28;20020;-80
2023/01/12 00:32:27;;;;;;;27.90;10.23;;;;;;;;;;6230369;28;20481;-80
2023/01/12 00:35:27;;;;;;;14.03;7.57;;;;;;;;;;6237472;28;20079;-80
2023/01/12 00:38:27;;;;;;;22.33;8.47;;;;;;;;;;6245475;28;20021;-81
2023/01/12 00:48:11;;;;;;;20.35;8.38;;;;;;;;;;6247982;28;20937;-81
2023/01/12 00:51:11;;;;;;;20.95;8.23;;;;;;;;;;6247521;28;20025;-81
2023/01/12 00:54:11;;;;;;;15.73;5.00;;;;;;;;;;6233084;28;20022;-81
2023/01/12 00:57:12;;;;;;;16.45;6.65;;;;;;;;;;6229160;28;20028;-81
2023/01/12 01:00:13;;;;;;;12.97;6.07;;;;;;;;;;6252315;28;20017;-82
2023/01/12 01:03:13;;;;;;;17.07;6.17;;;;;;;;;;6233325;28;20428;-81
2023/01/12 01:06:13;;;;;;;23.70;7.80;;;;;;;;;;6229331;28;20017;-81
2023/01/12 01:09:14;;;;;;;15.57;7.07;;;;;;;;;;6225408;28;20041;-82
2023/01/12 01:12:14;;;;;;;17.30;6.47;;;;;;;;;;6224331;28;20072;-82
2023/01/12 01:15:14;;;;;;;24.80;8.97;;;;;;;;;;6224405;28;20075;-83
2023/01/12 01:18:15;;;;;;;18.57;8.47;;;;;;;;;;6224860;28;20112;-82
2023/01/12 01:21:15;;;;;;;21.65;8.75;;;;;;;;;;6218139;28;20018;-82
2023/01/12 01:24:15;;;;;;;21.93;9.00;;;;;;;;;;6219398;28;20449;-82
2023/01/12 01:27:15;;;;;;;19.30;7.10;;;;;;;;;;6225228;28;20041;-82
2023/01/12 01:30:16;;;;;;;15.77;7.28;;;;;;;;;;6221871;28;20453;-82
2023/01/12 01:33:16;;;;;;;20.57;8.40;;;;;;;;;;6223848;28;20034;-81
2023/01/12 01:36:17;;;;;;;14.67;7.57;;;;;;;;;;6219740;28;20100;-82
2023/01/12 01:39:17;;;;;;;19.63;8.90;;;;;;;;;;6222060;28;20511;-83
2023/01/12 01:42:26;;;;;;;11.40;5.17;;;;;;;;;;6223318;28;20398;-82
2023/01/12 01:45:26;;;;;;;29.85;8.48;;;;;;;;;;6223336;28;20034;-82
2023/01/12 01:48:27;;;;;;;28.00;9.20;;;;;;;;;;6224470;28;20109;-82
2023/01/12 01:51:28;;;;;;;28.67;8.37;;;;;;;;;;6223346;28;20025;-81
2023/01/12 01:54:32;;;;;;;20.33;8.53;;;;;;;;;;6222316;28;20478;-82
2023/01/12 01:57:36;;;;;;;21.10;8.13;;;;;;;;;;6220550;28;20319;-81
2023/01/12 02:00:37;;;;;;;21.85;8.60;;;;;;;;;;6223472;28;20234;-81
2023/01/12 02:03:38;;;;;;;22.58;9.05;;;;;;;;;;6221568;28;20022;-82
2023/01/12 02:06:38;;;;;;;27.80;11.43;;;;;;;;;;6223174;28;20036;-82
2023/01/12 02:09:39;;;;;;;26.43;11.23;;;;;;;;;;6221657;28;20042;-82
2023/01/12 02:19:22;;;;;;;30.48;11.70;;;;;;;;;;6218038;28;20460;-81
2023/01/12 02:22:42;;;;;;;50.33;15.98;;;;;;;;;;6222311;28;20014;-81
2023/01/12 02:25:42;;;;;;;71.90;20.35;;;;;;;;;;6216220;28;20025;-81
2023/01/12 02:29:06;;;;;;;69.22;20.13;;;;;;;;;;6235508;28;20033;-82
2023/01/12 02:32:20;;;;;;;70.68;20.77;;;;;;;;;;6196129;28;20420;-81
2023/01/12 02:35:25;;;;;;;67.15;22.52;;;;;;;;;;6220027;28;20018;-81
2023/01/12 02:38:25;;;;;;;70.80;20.02;;;;;;;;;;6219233;28;20108;-81
2023/01/12 02:44:57;;;;;;;78.43;23.20;;;;;;;;;;6219412;28;20030;-81
2023/01/12 02:48:03;;;;;;;82.63;21.15;;;;;;;;;;6221383;28;20049;-81
2023/01/12 02:51:10;;;;;;;68.15;19.10;;;;;;;;;;6218633;28;20025;-81
2023/01/12 02:54:12;;;;;;;74.10;23.23;;;;;;;;;;6220252;28;20532;-81
2023/01/12 02:57:12;;;;;;;;;;;;;;;;;;6220596;28;20482;-81
2023/01/12 03:00:15;;;;;;;66.63;19.45;;;;;;;;;;6233369;28;20422;-81
2023/01/12 03:03:16;;;;;;;73.55;20.13;;;;;;;;;;6218618;28;20089;-81
2023/01/12 03:06:17;;;;;;;66.25;21.27;;;;;;;;;;6223110;28;20037;-81
2023/01/12 03:09:17;;;;;;;68.93;21.23;;;;;;;;;;6217988;28;20054;-81
2023/01/12 03:12:23;;;;;;;68.63;22.07;;;;;;;;;;6217175;28;20501;-81
2023/01/12 03:15:23;;;;;;;66.40;22.90;;;;;;;;;;6221452;28;20430;-81
2023/01/12 03:18:34;;;;;;;48.97;16.13;;;;;;;;;;6219425;28;20017;-81
2023/01/12 03:21:36;;;;;;;61.85;20.70;;;;;;;;;;6220301;28;20022;-81
2023/01/12 03:24:44;;;;;;;80.45;24.60;;;;;;;;;;6220202;28;20045;-81
2023/01/12 03:27:46;;;;;;;50.90;15.30;;;;;;;;;;6218085;28;20037;-81
2023/01/12 03:30:59;;;;;;;74.22;20.67;;;;;;;;;;6213376;28;20018;-81
2023/01/12 03:34:00;;;;;;;79.18;21.90;;;;;;;;;;6218090;28;20046;-81
2023/01/12 03:37:09;;;;;;;56.63;18.33;;;;;;;;;;6221464;28;20028;-82
2023/01/12 03:40:24;;;;;;;81.82;20.52;;;;;;;;;;6221566;28;20025;-82
2023/01/12 03:43:28;;;;;;;65.35;21.65;;;;;;;;;;6214008;28;20566;-82
2023/01/12 03:46:32;;;;;;;70.85;17.55;;;;;;;;;;6220576;28;20025;-82
2023/01/12 03:49:38;;;;;;;80.20;19.55;;;;;;;;;;6216317;28;20564;-81
2023/01/12 03:52:39;;;;;;;62.60;19.30;;;;;;;;;;6212578;28;20026;-81
2023/01/12 03:55:41;;;;;;;51.08;16.20;;;;;;;;;;6219040;28;20018;-82
2023/01/12 03:58:41;;;;;;;;;;;;;;;;;;6212170;28;20022;-81
2023/01/12 04:01:42;;;;;;;83.97;21.33;;;;;;;;;;6219428;28;19951;-81
2023/01/12 04:04:42;;;;;;;55.50;18.90;;;;;;;;;;6219752;28;20044;-81
2023/01/12 04:07:42;;;;;;;82.63;23.17;;;;;;;;;;6220027;28;20045;-82
2023/01/12 04:10:42;;;;;;;83.60;23.23;;;;;;;;;;6211005;28;20028;-82
2023/01/12 04:13:43;;;;;;;94.22;27.95;;;;;;;;;;6230516;28;20440;-81
2023/01/12 04:16:43;;;;;;;74.13;25.08;;;;;;;;;;6244981;28;20015;-81
2023/01/12 04:19:43;;;;;;;80.47;27.40;;;;;;;;;;6244832;28;20056;-81
2023/01/12 04:22:43;;;;;;;74.83;22.53;;;;;;;;;;6227117;28;20453;-81
2023/01/12 04:25:44;;;;;;;90.93;25.13;;;;;;;;;;6226626;28;20026;-81
2023/01/12 04:28:44;;;;;;;112.25;28.27;;;;;;;;;;6229457;28;20706;-81
2023/01/12 04:31:44;;;;;;;86.22;24.77;;;;;;;;;;6248712;28;20040;-82
2023/01/12 04:34:45;;;;;;;93.97;25.92;;;;;;;;;;6225480;28;20029;-82
2023/01/12 04:37:45;;;;;;;99.50;26.50;;;;;;;;;;6226008;28;20048;-82
2023/01/12 04:40:51;;;;;;;86.80;24.83;;;;;;;;;;6231373;28;20386;-82
2023/01/12 04:43:52;;;;;;;96.15;28.67;;;;;;;;;;6245460;28;20373;-82
2023/01/12 04:46:52;;;;;;;115.20;33.57;;;;;;;;;;6252685;28;20022;-82
2023/01/12 04:49:52;;;;;;;106.00;29.83;;;;;;;;;;6228430;28;20037;-82
2023/01/12 04:52:52;;;;;;;96.57;27.20;;;;;;;;;;6248914;28;20152;-82
2023/01/12 04:55:52;;;;;;;105.28;30.13;;;;;;;;;;6249319;28;20045;-82
2023/01/12 04:58:58;;;;;;;98.03;28.27;;;;;;;;;;6231868;28;20022;-81
2023/01/12 05:01:59;;;;;;;82.28;25.70;;;;;;;;;;6231192;28;20024;-81
2023/01/12 05:04:59;;;;;;;109.60;28.27;;;;;;;;;;6233200;28;20033;-82
2023/01/12 05:11:20;;;;;;;122.22;31.70;;;;;;;;;;6240607;28;20389;-82
2023/01/12 05:14:20;;;;;;;101.07;31.88;;;;;;;;;;6227833;28;20025;-81
2023/01/12 05:17:20;;;;;;;92.00;31.27;;;;;;;;;;6226563;28;20065;-81
2023/01/12 05:20:20;;;;;;;111.90;30.03;;;;;;;;;;6218682;28;20123;-82
2023/01/12 05:23:22;;;;;;;94.93;29.10;;;;;;;;;;6220165;28;20055;-82
2023/01/12 05:26:22;;;;;;;107.85;33.35;;;;;;;;;;6230560;28;20026;-81
2023/01/12 05:29:22;;;;;;;123.70;36.37;;;;;;;;;;6219915;28;20111;-81
2023/01/12 05:32:23;;;;;;;111.17;32.83;;;;;;;;;;6215192;28;20040;-81
2023/01/12 05:35:23;;;;;;;109.13;33.97;;;;;;;;;;6217894;28;20472;-81
2023/01/12 05:38:23;;;;;;;105.65;32.50;;;;;;;;;;6222366;28;20032;-81
2023/01/12 05:41:23;;;;;;;122.97;33.87;;;;;;;;;;6235250;28;20101;-81
2023/01/12 05:44:24;;;;;;;108.00;30.90;;;;;;;;;;6219900;28;20029;-82
2023/01/12 05:47:24;;;;;;;109.67;32.17;;;;;;;;;;6229029;28;20037;-81
2023/01/12 05:50:24;;;;;;;113.00;34.35;;;;;;;;;;6230235;28;20461;-81
2023/01/12 05:53:24;;;;;;;116.50;36.67;;;;;;;;;;6231127;28;20022;-81
2023/01/12 05:56:26;;;;;;;174.53;54.37;;;;;;;;;;6230110;28;20060;-81
2023/01/12 05:59:26;;;;;;;139.00;41.17;;;;;;;;;;6228986;28;20025;-81
2023/01/12 06:02:27;;;;;;;113.30;37.50;;;;;;;;;;6227749;28;20056;-81
2023/01/12 06:05:27;;;;;;;129.47;38.60;;;;;;;;;;6225933;28;20025;-82
2023/01/12 06:08:28;;;;;;;143.17;40.07;;;;;;;;;;6229301;28;20667;-81
2023/01/12 06:14:46;;;;;;;104.68;32.65;;;;;;;;;;6238405;28;20037;-81
2023/01/12 06:17:47;;;;;;;121.13;37.03;;;;;;;;;;6222236;28;20040;-81
2023/01/12 06:20:47;;;;;;;131.67;36.53;;;;;;;;;;6231315;28;20021;-81
2023/01/12 06:23:47;;;;;;;103.63;30.63;;;;;;;;;;6223164;28;20075;-81
2023/01/12 06:26:47;;;;;;;124.83;35.77;;;;;;;;;;6234813;28;20035;-81
2023/01/12 06:29:48;;;;;;;88.47;30.67;;;;;;;;;;6234930;28;20025;-81
2023/01/12 06:32:48;;;;;;;95.00;29.10;;;;;;;;;;6231156;28;20068;-81
2023/01/12 06:35:48;;;;;;;106.93;32.10;;;;;;;;;;6228377;28;20025;-81
2023/01/12 06:38:49;;;;;;;126.57;36.00;;;;;;;;;;6234030;28;20480;-81
2023/01/12 06:45:08;;;;;;;147.18;42.85;;;;;;;;;;6233187;28;20033;-81
2023/01/12 06:48:09;;;;;;;138.63;39.17;;;;;;;;;;6226111;28;20016;-80
2023/01/12 06:51:09;;;;;;;99.53;33.13;;;;;;;;;;6247953;28;20018;-80
2023/01/12 06:54:09;;;;;;;142.10;38.33;;;;;;;;;;6233124;28;20040;-81
2023/01/12 06:57:09;;;;;;;124.65;31.55;;;;;;;;;;6240516;28;20508;-81
2023/01/12 07:00:12;;;;;;;127.22;35.33;;;;;;;;;;6233927;28;20026;-81
2023/01/12 07:03:17;;;;;;;120.30;36.20;;;;;;;;;;6216982;28;20112;-80
2023/01/12 07:06:17;;;;;;;127.85;32.20;;;;;;;;;;6236440;28;20258;-81
2023/01/12 07:09:17;;;;;;;132.87;36.17;;;;;;;;;;6241672;28;20042;-80
2023/01/12 07:12:17;;;;;;;132.00;38.67;;;;;;;;;;6234896;28;20013;-80
2023/01/12 07:15:18;;;;;;;127.03;35.87;;;;;;;;;;6224543;28;20101;-81
2023/01/12 07:18:18;;;;;;;140.65;36.65;;;;;;;;;;6219598;28;20029;-80
2023/01/12 07:21:18;;;;;;;116.03;30.73;;;;;;;;;;6239999;28;20055;-80
2023/01/12 07:24:18;;;;;;;147.70;39.90;;;;;;;;;;6224720;28;20087;-80
2023/01/12 07:27:19;;;;;;;148.90;42.63;;;;;;;;;;6242456;28;20347;-80
2023/01/12 07:30:22;;;;;;;139.43;41.63;;;;;;;;;;6246444;28;20470;-80
2023/01/12 07:33:22;;;;;;;150.02;41.90;;;;;;;;;;6240760;28;20056;-80
2023/01/12 07:36:24;;;;;;;140.03;40.03;;;;;;;;;;6237979;28;20014;-80
2023/01/12 07:39:24;;;;;;;143.23;45.05;;;;;;;;;;6230130;28;20029;-80
2023/01/12 07:42:24;;;;;;;122.57;39.10;;;;;;;;;;6226025;28;20492;-80
2023/01/12 07:45:25;;;;;;;112.17;30.40;;;;;;;;;;6223028;28;20022;-80
2023/01/12 07:48:26;;;;;;;117.30;33.23;;;;;;;;;;6215017;28;20053;-80
2023/01/12 07:51:26;;;;;;;144.00;40.33;;;;;;;;;;6221144;28;20017;-80
2023/01/12 07:54:26;;;;;;;175.00;47.00;;;;;;;;;;6229322;28;20024;-81
2023/01/12 07:57:28;;;;;;;169.43;46.17;;;;;;;;;;6225373;28;20032;-80
2023/01/12 08:00:29;;;;;;;179.75;48.17;;;;;;;;;;6235916;28;20052;-79
2023/01/12 08:03:29;;;;;;;180.23;51.03;;;;;;;;;;6231031;28;20448;-79
2023/01/12 08:06:29;;;;;;;171.70;51.70;;;;;;;;;;6251095;28;20288;-81
2023/01/12 08:09:30;;;;;;;132.20;35.03;;;;;;;;;;6230325;28;20041;-80
2023/01/12 08:12:30;;;;;;;122.87;34.07;;;;;;;;;;6232603;28;20021;-81
2023/01/12 08:15:32;;;;;;;142.23;38.80;;;;;;;;;;6226630;28;20029;-80
2023/01/12 08:18:34;;;;;;;135.50;35.38;;;;;;;;;;6228809;28;20033;-79
2023/01/12 08:21:44;;;;;;;122.47;36.60;;;;;;;;;;6242437;28;20021;-79
2023/01/12 08:24:46;;;;;;;133.23;36.13;;;;;;;;;;6232538;28;20029;-80
2023/01/12 08:27:48;;;;;;;120.97;36.70;;;;;;;;;;6237391;28;20026;-80
2023/01/12 08:30:48;;;;;;;;;;;;;;;;;;6217818;28;20045;-80
2023/01/12 08:33:49;;;;;;;110.05;31.33;;;;;;;;;;6227345;28;19966;-80
2023/01/12 08:36:49;;;;;;;128.15;35.20;;;;;;;;;;6216955;28;20537;-79
2023/01/12 08:39:50;;;;;;;135.37;37.60;;;;;;;;;;6242087;28;20029;-80
2023/01/12 08:42:50;;;;;;;139.70;38.57;;;;;;;;;;6230404;28;20025;-79
2023/01/12 08:45:51;;;;;;;127.50;35.67;;;;;;;;;;6225740;28;20029;-79
2023/01/12 08:48:52;;;;;;;112.80;34.70;;;;;;;;;;6245328;28;20027;-79
2023/01/12 08:51:52;;;;;;;140.95;36.58;;;;;;;;;;6241224;28;20462;-80
2023/01/12 08:54:53;;;;;;;128.17;36.33;;;;;;;;;;6240255;28;20022;-79
2023/01/12 08:57:54;;;;;;;114.57;37.67;;;;;;;;;;6225518;28;20531;-80
2023/01/12 09:00:54;;;;;;;107.53;35.58;;;;;;;;;;6243520;28;20544;-80
2023/01/12 09:03:55;;;;;;;114.90;38.13;;;;;;;;;;6223069;28;20021;-79
2023/01/12 09:06:55;;;;;;;140.60;44.33;;;;;;;;;;6231751;28;20025;-80
2023/01/12 09:09:55;;;;;;;137.30;43.93;;;;;;;;;;6230997;28;20378;-80
2023/01/12 09:12:55;;;;;;;137.32;46.40;;;;;;;;;;6230233;28;20495;-80
2023/01/12 09:16:00;;;;;;;137.47;50.20;;;;;;;;;;6230943;28;20388;-80
2023/01/12 09:19:00;;;;;;;151.27;48.67;;;;;;;;;;6230404;28;20029;-80
2023/01/12 09:22:00;;;;;;;142.47;44.03;;;;;;;;;;6247647;28;20032;-80
2023/01/12 09:25:01;;;;;;;138.87;46.43;;;;;;;;;;6229188;28;20025;-81
2023/01/12 09:28:01;;;;;;;164.00;53.17;;;;;;;;;;6229122;28;20257;-80
2023/01/12 09:31:03;;;;;;;141.30;49.47;;;;;;;;;;6229703;28;20469;-80
2023/01/12 09:34:03;;;;;;;154.45;50.20;;;;;;;;;;6228864;28;20013;-80
2023/01/12 09:37:03;;;;;;;142.70;47.10;;;;;;;;;;6228354;28;20496;-81
2023/01/12 09:40:03;;;;;;;120.70;41.03;;;;;;;;;;6248135;28;20021;-81
2023/01/12 09:49:47;;;;;;;93.32;32.00;;;;;;;;;;6248428;28;20041;-80
2023/01/12 09:52:54;;;;;;;82.10;28.17;;;;;;;;;;6247723;28;20044;-80
2023/01/12 09:56:01;;;;;;;68.07;24.55;;;;;;;;;;6247260;28;20024;-80
2023/01/12 09:59:23;;;;;;;76.63;24.33;;;;;;;;;;6229485;28;20022;-80
2023/01/12 10:02:23;;;;;;;68.50;22.80;;;;;;;;;;6247216;28;20056;-80
2023/01/12 10:05:36;;;;;;;50.57;20.40;;;;;;;;;;6228870;28;20018;-80
2023/01/12 10:08:48;;;;;;;65.18;22.35;;;;;;;;;;6228971;28;20037;-79
2023/01/12 10:12:13;;;;;;;57.63;19.90;;;;;;;;;;6246235;28;20457;-80
2023/01/12 10:15:26;;;;;;;51.05;18.50;;;;;;;;;;6217238;28;20447;-79
2023/01/12 10:18:30;;;;;;;53.88;15.05;;;;;;;;;;6229592;28;20493;-79
2023/01/12 10:21:31;;;;;;;53.67;14.55;;;;;;;;;;6228889;28;20513;-80
2023/01/12 10:24:31;;;;;;;50.10;15.37;;;;;;;;;;6226937;28;20021;-80
2023/01/12 10:27:36;;;;;;;33.50;10.47;;;;;;;;;;6235779;28;20022;-79
2023/01/12 10:30:38;;;;;;;53.97;16.95;;;;;;;;;;6239068;28;20025;-79
2023/01/12 10:33:58;;;;;;;43.85;14.07;;;;;;;;;;6237934;28;20013;-79
2023/01/12 10:37:03;;;;;;;42.53;13.90;;;;;;;;;;6207589;28;20036;-79
2023/01/12 10:40:03;;;;;;;51.78;14.68;;;;;;;;;;6221096;28;20431;-79
2023/01/12 10:43:18;;;;;;;51.97;15.83;;;;;;;;;;6222390;28;20017;-80
2023/01/12 10:46:23;;;;;;;50.83;15.68;;;;;;;;;;6217413;28;20021;-79
2023/01/12 10:49:23;;;;;;;53.08;13.27;;;;;;;;;;6223578;28;20053;-79
2023/01/12 10:52:34;;;;;;;41.43;12.60;;;;;;;;;;6211659;28;20385;-80
2023/01/12 10:55:37;;;;;;;43.95;13.77;;;;;;;;;;6223157;28;20022;-80
2023/01/12 10:58:38;;;;;;;54.95;16.30;;;;;;;;;;6237198;28;20029;-79
2023/01/12 11:01:56;;;;;;;42.27;11.67;;;;;;;;;;6236802;28;20017;-80
2023/01/12 11:04:56;;;;;;;46.50;12.85;;;;;;;;;;6221985;28;20044;-80
2023/01/12 11:07:57;;;;;;;42.13;12.63;;;;;;;;;;6227805;28;20485;-80
2023/01/12 11:11:12;;;;;;;60.07;15.10;;;;;;;;;;6228574;28;20366;-80
2023/01/12 11:14:19;;;;;;;35.78;11.48;;;;;;;;;;6228767;28;20017;-80
2023/01/12 11:17:46;;;;;;;45.42;13.38;;;;;;;;;;6223440;28;20084;-80
2023/01/12 11:20:54;;;;;;;50.85;14.88;;;;;;;;;;6226889;28;20093;-80
2023/01/12 11:24:15;;;;;;;34.45;10.32;;;;;;;;;;6222491;28;20405;-80
2023/01/12 11:27:18;;;;;;;38.60;13.57;;;;;;;;;;6234601;28;20053;-80
2023/01/12 11:30:21;;;;;;;39.95;13.77;;;;;;;;;;6220204;28;20108;-80
2023/01/12 11:33:24;;;;;;;52.95;12.48;;;;;;;;;;6229880;28;20026;-80
2023/01/12 11:36:30;;;;;;;47.13;15.88;;;;;;;;;;6232685;28;20095;-80
2023/01/12 11:39:30;;;;;;;41.10;14.82;;;;;;;;;;6219640;28;20109;-80
2023/01/12 11:45:52;;;;;;;41.33;13.35;;;;;;;;;;6235949;28;20455;-80
2023/01/12 11:48:58;;;;;;;34.03;9.95;;;;;;;;;;6224672;28;20024;-80
2023/01/12 11:52:01;;;;;;;34.30;12.68;;;;;;;;;;6219967;28;20104;-80
2023/01/12 11:55:01;;;;;;;56.63;15.95;;;;;;;;;;6227377;28;20026;-80
2023/01/12 11:58:06;;;;;;;61.10;12.87;;;;;;;;;;6244909;28;20037;-80
2023/01/12 12:01:14;;;;;;;38.55;9.65;;;;;;;;;;6231002;28;20596;-80
2023/01/12 12:04:36;;;;;;;40.10;12.25;;;;;;;;;;6227614;28;20017;-81
2023/01/12 12:07:42;;;;;;;34.05;13.93;;;;;;;;;;6245303;28;20482;-80
2023/01/12 12:10:42;;;;;;;28.92;11.15;;;;;;;;;;6241154;28;20017;-80
2023/01/12 12:13:55;;;;;;;31.20;11.80;;;;;;;;;;6222464;28;20028;-80
2023/01/12 12:16:57;;;;;;;27.80;10.77;;;;;;;;;;6222918;28;20093;-80
2023/01/12 12:20:30;;;;;;;30.73;10.70;;;;;;;;;;6217185;28;20079;-80
2023/01/12 12:23:46;;;;;;;31.70;10.48;;;;;;;;;;6219389;28;20038;-80
2023/01/12 12:26:57;;;;;;;19.15;6.60;;;;;;;;;;6238940;28;20013;-80
2023/01/12 12:30:01;;;;;;;17.95;7.22;;;;;;;;;;6220321;28;20025;-81
2023/01/12 12:33:10;;;;;;;23.65;9.52;;;;;;;;;;6224134;28;20022;-82
2023/01/12 12:36:33;;;;;;;28.70;8.90;;;;;;;;;;6235704;28;20045;-80
2023/01/12 12:39:44;;;;;;;28.00;7.78;;;;;;;;;;6233102;28;20499;-80
2023/01/12 12:46:19;;;;;;;19.38;7.28;;;;;;;;;;6230169;28;20477;-80
2023/01/12 12:49:21;;;;;;;24.65;8.55;;;;;;;;;;6232068;28;20038;-80
2023/01/12 12:52:22;;;;;;;12.63;4.75;;;;;;;;;;6215161;28;20022;-80
2023/01/12 12:55:23;;;;;;;25.55;8.65;;;;;;;;;;6228852;28;20032;-80
2023/01/12 12:58:24;;;;;;;2.33;2.20;;;;;;;;;;6244451;28;20504;-80
2023/01/12 13:01:25;;;;;;;;;;;;;;;;;;6229462;28;20462;-80
2023/01/12 13:04:41;;;;;;;0.73;0.73;;;;;;;;;;6226984;28;20354;-79
2023/01/12 13:07:44;;;;;;;0.73;0.73;;;;;;;;;;6215104;28;20040;-80
2023/01/12 13:10:52;;;;;;;0.43;0.43;;;;;;;;;;6228271;28;20041;-79
2023/01/12 13:13:58;;;;;;;0.98;0.95;;;;;;;;;;6247284;28;20524;-80
2023/01/12 13:17:00;;;;;;;0.10;0.10;;;;;;;;;;6249048;28;20017;-80
2023/01/12 13:20:00;;;;;;;;;;;;;;;;;;6241188;28;20045;-80
2023/01/12 13:23:00;;;;;;;2.08;1.73;;;;;;;;;;6246391;28;19905;-80
2023/01/12 13:26:00;;;;;;;0.73;0.73;;;;;;;;;;6221600;28;20406;-80
2023/01/12 13:29:19;;;;;;;0.10;0.10;;;;;;;;;;6242274;28;20022;-80
2023/01/12 13:32:32;;;;;;;0.10;0.10;;;;;;;;;;6233976;28;19994;-80
2023/01/12 13:35:32;;;;;;;0.43;0.43;;;;;;;;;;6223537;28;20021;-80
2023/01/12 13:38:32;;;;;;;0.20;0.20;;;;;;;;;;6228135;28;20032;-80
2023/01/12 13:44:52;;;;;;;0.10;0.10;;;;;;;;;;6247028;28;20397;-80
2023/01/12 13:47:53;;;;;;;0.63;0.63;;;;;;;;;;6243996;28;20029;-80
2023/01/12 13:51:02;;;;;;;1.20;1.10;;;;;;;;;;6245655;28;20068;-80
2023/01/12 13:54:05;;;;;;;0.10;0.10;;;;;;;;;;6227283;28;20014;-80
2023/01/12 13:57:09;;;;;;;0.30;0.30;;;;;;;;;;6247784;28;20064;-79
2023/01/12 14:00:18;;;;;;;0.95;0.95;;;;;;;;;;6228260;28;20100;-80
2023/01/12 14:03:26;;;;;;;2.78;0.80;;;;;;;;;;6227328;28;20124;-79
2023/01/12 14:06:38;;;;;;;1.90;1.30;;;;;;;;;;6235793;28;20033;-79
2023/01/12 14:09:50;;;;;;;0.55;0.55;;;;;;;;;;6240684;28;20096;-79
2023/01/12 14:12:56;;;;;;;2.27;0.60;;;;;;;;;;6234977;28;20100;-79
2023/01/12 14:19:26;;;;;;;1.55;1.27;;;;;;;;;;6235464;28;20033;-79
2023/01/12 14:22:26;;;;;;;0.20;0.20;;;;;;;;;;6245696;28;20071;-79
2023/01/12 14:25:26;;;;;;;0.20;0.20;;;;;;;;;;6225188;28;20026;-79
2023/01/12 14:28:27;;;;;;;0.10;0.10;;;;;;;;;;6237350;28;20820;-79
2023/01/12 14:31:33;;;;;;;0.67;0.67;;;;;;;;;;6239457;28;20717;-79
2023/01/12 14:34:35;;;;;;;1.20;0.75;;;;;;;;;;6244727;28;20031;-79
2023/01/12 14:37:35;;;;;;;1.65;1.55;;;;;;;;;;6246452;28;20024;-80
2023/01/12 14:40:35;;;;;;;16.07;2.17;;;;;;;;;;6229032;28;20013;-80
2023/01/12 14:46:54;;;;;;;0.90;0.90;;;;;;;;;;6238447;28;20037;-79
2023/01/12 14:49:55;;;;;;;0.50;0.50;;;;;;;;;;6240306;28;20028;-79
2023/01/12 14:52:55;;;;;;;1.63;1.53;;;;;;;;;;6243890;28;20010;-79
2023/01/12 14:56:04;;;;;;;1.60;1.50;;;;;;;;;;6227615;28;20114;-80
2023/01/12 14:59:12;;;;;;;4.68;3.15;;;;;;;;;;6219906;28;20018;-80
2023/01/12 15:02:12;;;;;;;4.05;3.67;;;;;;;;;;6220522;28;20032;-79
2023/01/12 15:05:18;;;;;;;3.20;2.95;;;;;;;;;;6222222;28;20496;-80
2023/01/12 15:08:21;;;;;;;4.03;2.95;;;;;;;;;;6234170;28;20042;-79
2023/01/12 15:11:32;;;;;;;4.95;4.53;;;;;;;;;;6243495;28;20018;-79
2023/01/12 15:14:32;;;;;;;4.50;4.15;;;;;;;;;;6223741;28;20022;-80
2023/01/12 15:27:44;;;;;;;4.85;4.53;;;;;;;;;;6232098;28;20042;-80
2023/01/12 15:30:44;;;;;;;18.83;4.57;;;;;;;;;;6218881;28;20020;-80
2023/01/12 15:33:44;;;;;;;1.37;1.27;;;;;;;;;;6221548;28;20017;-80
2023/01/12 15:36:44;;;;;;;1.57;1.50;;;;;;;;;;6237252;28;20493;-79
2023/01/12 15:39:45;;;;;;;1.70;1.60;;;;;;;;;;6241271;28;20025;-79
2023/01/12 15:42:46;;;;;;;3.97;3.00;;;;;;;;;;6219830;28;20456;-80
2023/01/12 15:45:46;;;;;;;0.60;0.60;;;;;;;;;;6209980;28;20836;-80
2023/01/12 15:48:46;;;;;;;0.63;0.63;;;;;;;;;;6224857;28;20021;-80
2023/01/12 15:51:50;;;;;;;1.60;1.50;;;;;;;;;;6210506;28;20026;-80
2023/01/12 15:54:51;;;;;;;2.33;2.13;;;;;;;;;;6214032;28;20017;-81
2023/01/12 15:57:51;;;;;;;5.53;2.00;;;;;;;;;;6231096;28;20017;-80
2023/01/12 16:00:51;;;;;;;1.50;1.43;;;;;;;;;;6217354;28;20022;-80
2023/01/12 16:03:51;;;;;;;1.33;1.27;;;;;;;;;;6206210;28;20339;-80
2023/01/12 16:06:52;;;;;;;0.93;0.93;;;;;;;;;;6244972;28;20048;-80
2023/01/12 16:09:53;;;;;;;1.80;1.70;;;;;;;;;;6221329;28;20508;-79
2023/01/12 16:12:54;;;;;;;;;;;;;;;;;;6224849;28;20366;-79
2023/01/12 16:15:54;;;;;;;0.77;0.77;;;;;;;;;;6233271;28;20305;-79
2023/01/12 16:18:58;;;;;;;1.70;1.60;;;;;;;;;;6216373;28;20028;-80
2023/01/12 16:21:58;;;;;;;0.10;0.10;;;;;;;;;;6226392;28;20145;-80
2023/01/12 16:24:59;;;;;;;0.25;0.25;;;;;;;;;;6234509;28;20542;-80
2023/01/12 16:27:59;;;;;;;0.20;0.20;;;;;;;;;;6216928;28;20029;-80
2023/01/12 16:31:03;;;;;;;0.87;0.87;;;;;;;;;;6217842;28;20025;-80
2023/01/12 16:34:03;;;;;;;2.40;2.30;;;;;;;;;;6237522;28;20014;-80
2023/01/12 16:37:04;;;;;;;3.27;2.97;;;;;;;;;;6222193;28;20382;-80
2023/01/12 16:40:04;;;;;;;1.97;1.83;;;;;;;;;;6216945;28;20018;-80
2023/01/12 16:43:04;;;;;;;1.87;1.77;;;;;;;;;;6236425;28;20021;-80
2023/01/12 16:46:05;;;;;;;2.33;2.13;;;;;;;;;;6225460;28;20014;-80
2023/01/12 16:49:05;;;;;;;0.47;0.43;;;;;;;;;;6222028;28;20489;-80
2023/01/12 16:52:06;;;;;;;9.63;2.33;;;;;;;;;;6238918;28;20028;-80
2023/01/12 16:55:07;;;;;;;2.33;2.23;;;;;;;;;;6216238;28;20013;-80
2023/01/12 16:58:08;;;;;;;0.77;0.77;;;;;;;;;;6248486;28;20021;-80
2023/01/12 17:01:12;;;;;;;0.73;0.73;;;;;;;;;;6231469;28;20025;-80
2023/01/12 17:04:12;;;;;;;0.57;0.57;;;;;;;;;;6246742;28;20509;-80
2023/01/12 17:07:12;;;;;;;0.67;0.67;;;;;;;;;;6230804;28;20067;-80
2023/01/12 17:10:13;;;;;;;0.38;0.38;;;;;;;;;;6216584;28;20042;-80
2023/01/12 17:13:13;;;;;;;4.23;3.87;;;;;;;;;;6206342;28;20101;-80
2023/01/12 17:16:13;;;;;;;6.13;3.50;;;;;;;;;;6210490;28;20030;-80
2023/01/12 17:19:14;;;;;;;2.20;2.07;;;;;;;;;;6219718;28;20102;-80
2023/01/12 17:22:14;;;;;;;1.10;1.10;;;;;;;;;;6210263;28;20065;-80
2023/01/12 17:25:15;;;;;;;1.40;1.30;;;;;;;;;;6207233;28;20157;-80
2023/01/12 17:28:15;;;;;;;3.60;2.33;;;;;;;;;;6221845;28;20363;-80
2023/01/12 17:31:17;;;;;;;3.83;3.50;;;;;;;;;;6213493;28;20400;-80
2023/01/12 17:34:18;;;;;;;4.85;2.70;;;;;;;;;;6211718;28;20013;-80
2023/01/12 17:37:18;;;;;;;5.03;2.63;;;;;;;;;;6219371;28;20025;-79
2023/01/12 17:40:18;;;;;;;0.20;0.20;;;;;;;;;;6216788;28;20454;-79
2023/01/12 17:43:18;;;;;;;2.60;1.90;;;;;;;;;;6217972;28;20057;-79
2023/01/12 17:46:18;;;;;;;1.15;1.15;;;;;;;;;;6223284;28;20025;-79
2023/01/12 17:49:19;;;;;;;1.73;1.70;;;;;;;;;;6221454;28;20350;-79
2023/01/12 17:52:19;;;;;;;3.57;3.27;;;;;;;;;;6221372;28;20045;-79
2023/01/12 17:55:19;;;;;;;6.03;5.43;;;;;;;;;;6221933;28;20030;-79
2023/01/12 17:58:19;;;;;;;2.00;1.83;;;;;;;;;;6219023;28;20033;-79
2023/01/12 18:01:20;;;;;;;0.70;0.70;;;;;;;;;;6221956;28;20034;-81
2023/01/12 18:04:21;;;;;;;2.73;2.17;;;;;;;;;;6214952;28;20026;-81
2023/01/12 18:07:21;;;;;;;3.70;3.10;;;;;;;;;;6211447;28;20300;-81
2023/01/12 18:10:21;;;;;;;0.60;0.60;;;;;;;;;;6217913;28;20448;-81
2023/01/12 18:13:22;;;;;;;1.53;1.43;;;;;;;;;;6220858;28;20033;-81
2023/01/12 18:16:23;;;;;;;2.33;2.22;;;;;;;;;;6219075;28;20026;-81
2023/01/12 18:19:23;;;;;;;1.83;1.77;;;;;;;;;;6216507;28;20121;-81
2023/01/12 18:22:23;;;;;;;4.40;3.80;;;;;;;;;;6216970;28;20028;-80
2023/01/12 18:25:24;;;;;;;6.73;2.97;;;;;;;;;;6211151;28;21007;-81
2023/01/12 18:28:24;;;;;;;2.33;1.97;;;;;;;;;;6217251;28;20540;-80
2023/01/12 18:31:27;;;;;;;4.03;3.72;;;;;;;;;;6216844;28;20030;-81
2023/01/12 18:34:28;;;;;;;2.53;2.15;;;;;;;;;;6222451;28;20018;-81
2023/01/12 18:37:28;;;;;;;0.60;0.60;;;;;;;;;;6218289;28;20108;-81
2023/01/12 18:40:28;;;;;;;3.87;2.60;;;;;;;;;;6217685;28;20030;-81
2023/01/12 18:43:28;;;;;;;1.13;1.13;;;;;;;;;;6221143;28;20034;-81
2023/01/12 18:48:19;;;;;;;3.83;1.40;;;;;;;;;;6217961;28;20024;-80
2023/01/12 18:49:49;;;;;;;38.88;5.28;;;;;;;;;;6218732;28;20076;-80
2023/01/12 18:56:08;;;;;;;4.60;1.85;;;;;;;;;;6221742;28;20033;-80
2023/01/12 18:59:08;;;;;;;1.13;1.07;;;;;;;;;;6216667;28;20052;-80